METAR (acronimo di METeorological Air Report) è un messaggio meteo emesso nella maggior parte dei casi in ambito aeroportuale

LIPF - Ferrara, It
Distanza dalla Stazione: 8 km
Ultimo Aggiornamento: Mercoledì 28 Ottobre 2020 16:55 CET
Sereno
Sereno
 Wind from calm
Vento: Calma
Temperatura: 16°C
Punto di Rugiada: 10°C
Umidità: 68%
Barometro: 1016 hPa
Condizioni: Sereno
Visibilità: superiore a 10 km
2020/10/28 15:55 LIPF 281555Z 00000KT CAVOK 16/10 Q1016
LIPE - Bologna Borgo Panigale, It
Distanza dalla Stazione: 46 km
Ultimo Aggiornamento: Mercoledì 28 Ottobre 2020 17:20 CET
Sereno
Sereno
 Wind from varies
Vento: variabile 2 km/h
Temperatura: 14°C
Punto di Rugiada: 8°C
Umidità: 67%
Barometro: 1017 hPa
Condizioni: Sereno
Visibilità: superiore a 10 km
2020/10/28 16:20 LIPE 281620Z VRB01KT CAVOK 14/08 Q1017
LIMF - Torino Caselle, It
Distanza dalla Stazione: 320 km
Ultimo Aggiornamento: Mercoledì 28 Ottobre 2020 17:20 CET
Sereno
Sereno
 Wind from Est-Nord-Est
Vento: Est-Nord-Est 6 km/h
Temperatura: 14°C
Punto di Rugiada: 7°C
Umidità: 63%
Barometro: 1017 hPa
Condizioni: Sereno
Visibilità: superiore a 10 km
2020/10/28 16:20 LIMF 281620Z 06003KT CAVOK 14/07 Q1017
 
LIML - Milano Malpensa, It
Distanza dalla Stazione: 249 km
Ultimo Aggiornamento: Mercoledì 28 Ottobre 2020 17:20 CET
Sereno
Sereno
 Wind from Ovest
Vento: Ovest 6 km/h
Temperatura: 15°C
Punto di Rugiada: 8°C
Umidità: 63%
Barometro: 1017 hPa
Condizioni: Sereno
Visibilità: superiore a 10 km
2020/10/28 16:20 LIML 281620Z 26003KT CAVOK 15/08 Q1017 NOSIG
LIME - Bergamo Orio al Serio, It
Distanza dalla Stazione: 181 km
Ultimo Aggiornamento: Mercoledì 28 Ottobre 2020 17:20 CET
Sereno
Sereno
 Wind from varies
Vento: variabile 2 km/h
Temperatura: 14°C
Punto di Rugiada: 10°C
Umidità: 77%
Barometro: 1017 hPa
Condizioni: Sereno
Visibilità: superiore a 10 km
2020/10/28 16:20 LIME 281620Z VRB01KT CAVOK 14/10 Q1017 NOSIG
LIPZ - Venezia Tessera, It
Distanza dalla Stazione: 93 km
Ultimo Aggiornamento: Mercoledì 28 Ottobre 2020 17:20 CET
Sereno
Sereno
 Wind from Sud-Sud-Ovest
Vento: Sud-Sud-Ovest 11 km/h
Temperatura: 14°C
Punto di Rugiada: 11°C
Umidità: 82%
Barometro: 1016 hPa
Condizioni: Sereno
Visibilità: superiore a 10 km
2020/10/28 16:20 LIPZ 281620Z 20006KT CAVOK 14/11 Q1016 NOSIG
 
LIVT - Trieste, It
Distanza dalla Stazione: 179 km
Ultimo Aggiornamento: Mercoledì 28 Ottobre 2020 16:55 CET
Sereno
Sereno
 Wind from varies
Vento: variabile 0 km/h
Temperatura: 16°C
Punto di Rugiada: 13°C
Umidità: 83%
Barometro: 1016 hPa
Condizioni: Sereno
Visibilità: superiore a 10 km
2020/10/28 15:55 LIVT 281555Z /////KT CAVOK 16/13 Q1016 RMK SCT FEW160 SCT180 QUK 1 QUL 0 VIS MAR 20 KM VIS MIN 9999
LIMJ - Genova, It
Distanza dalla Stazione: 229 km
Ultimo Aggiornamento: Mercoledì 28 Ottobre 2020 17:20 CET
Qualche Nuvola
Qualche Nuvola
 Wind from Sud-Sud-Est
Vento: Sud-Sud-Est 13 km/h
Temperatura: 17°C
Punto di Rugiada: 11°C
Umidità: 68%
Barometro: 1017 hPa
Nuvole: Qualche Nuvola
Visibilità: 10 km
Nuvole nel Dettaglio: Qualche Nuvola 701 m
2020/10/28 16:20 LIMJ 281620Z 16007KT 9999 FEW023 17/11 Q1017
LIRQ - Firenze Amerigo Vespucci, It
Distanza dalla Stazione: 119 km
Ultimo Aggiornamento: Mercoledì 28 Ottobre 2020 17:20 CET
Sereno
Sereno
 Wind from Nord-Ovest
Vento: Nord-Ovest 2 km/h
Temperatura: 15°C
Punto di Rugiada: 9°C
Umidità: 68%
Barometro: 1018 hPa
Condizioni: Sereno
Visibilità: superiore a 10 km
2020/10/28 16:20 LIRQ 281620Z 32001KT CAVOK 15/09 Q1018
 
LIPY - Ancona, It
Distanza dalla Stazione: 189 km
Ultimo Aggiornamento: Mercoledì 28 Ottobre 2020 17:20 CET
Qualche Nuvola
Qualche Nuvola
 Wind from Nord-Ovest
Vento: Nord-Ovest 7 km/h
Temperatura: 15°C
Punto di Rugiada: 13°C
Umidità: 88%
Barometro: 1017 hPa
Nuvole: Qualche Nuvola
Visibilità: 10 km
Nuvole nel Dettaglio: Qualche Nuvola 7315 m
2020/10/28 16:20 LIPY 281620Z AUTO 31004KT 290V350 9999 FEW240/// 15/13 Q1017
LIBP - Pescara, It
Distanza dalla Stazione: 333 km
Ultimo Aggiornamento: Mercoledì 28 Ottobre 2020 17:20 CET
Sereno
Sereno
 Wind from Nord
Vento: Nord 6 km/h
Temperatura: 16°C
Punto di Rugiada: 11°C
Umidità: 72%
Barometro: 1017 hPa
Nuvole: Sereno
Visibilità: 10 km
2020/10/28 16:20 LIBP 281620Z AUTO 36003KT 290V040 9999 NCD 16/11 Q1017
LIRF - Roma-Fiumicino, It
Distanza dalla Stazione: 334 km
Ultimo Aggiornamento: Mercoledì 28 Ottobre 2020 17:20 CET
Sereno
Sereno
 Wind from Ovest-Nord-Ovest
Vento: Ovest-Nord-Ovest 17 km/h
Temperatura: 17°C
Punto di Rugiada: 11°C
Umidità: 68%
Barometro: 1017 hPa
Condizioni: Sereno
Visibilità: superiore a 10 km
2020/10/28 16:20 LIRF 281620Z 30009KT CAVOK 17/11 Q1017 NOSIG
 
LIRN - Napoli Capodichino, It
Distanza dalla Stazione: 494 km
Ultimo Aggiornamento: Mercoledì 28 Ottobre 2020 17:20 CET
Sereno
Sereno
 Wind from Ovest-Nord-Ovest
Vento: Ovest-Nord-Ovest 9 km/h
Temperatura: 16°C
Punto di Rugiada: 11°C
Umidità: 72%
Barometro: 1016 hPa
Condizioni: Sereno
Visibilità: superiore a 10 km
2020/10/28 16:20 LIRN 281620Z 29005KT CAVOK 16/11 Q1016 NOSIG
LIBD - Bari Palese, It
Distanza dalla Stazione: 594 km
Ultimo Aggiornamento: Mercoledì 28 Ottobre 2020 17:20 CET
Parzialmente Nuvoloso
Parzialmente Nuvoloso
 Wind from Nord-Nord-Ovest
Vento: Nord-Nord-Ovest 20 km/h
Temperatura: 18°C
Punto di Rugiada: 13°C
Umidità: 73%
Barometro: 1015 hPa
Nuvole: Parzialmente Nuvoloso
Visibilità: 10 km
Nuvole nel Dettaglio: Parzialmente Nuvoloso 762 m
2020/10/28 16:20 LIBD 281620Z 33011KT 300V010 9999 SCT025 18/13 Q1015
LIBG - Taranto Grottaglie, It
Distanza dalla Stazione: 670 km
Ultimo Aggiornamento: Mercoledì 28 Ottobre 2020 16:50 CET
Qualche Nuvola
Qualche Nuvola
 Wind from Nord-Nord-Ovest
Vento: Nord-Nord-Ovest 30 km/h, Raffica: 52 km/h
Temperatura: 18°C
Punto di Rugiada: 13°C
Umidità: 73%
Barometro: 1013 hPa
Nuvole: Qualche Nuvola
Visibilità: 10 km
Nuvole nel Dettaglio: Qualche Nuvola 914 m
2020/10/28 15:50 LIBG 281550Z 34016G28KT 9999 FEW030 18/13 Q1013
 
LICR - Reggio Calabria, It
Distanza dalla Stazione: 819 km
Ultimo Aggiornamento: Mercoledì 28 Ottobre 2020 17:22 CET
Pioggia, Parzialmente Nuvoloso
Pioggia, Parzialmente Nuvoloso
 Wind from Nord-Nord-Est
Vento: Nord-Nord-Est 20 km/h
Temperatura: 16°C
Punto di Rugiada: 13°C
Umidità: 83%
Barometro: 1015 hPa
Condizioni: Pioggia
Nuvole: Parzialmente Nuvoloso
Visibilità: 10 km
Nuvole nel Dettaglio: Parzialmente Nuvoloso 1219 m
2020/10/28 16:22 LICR 281622Z 02011KT 9999 RA SCT040 16/13 Q1015
LICJ - Palermo Punta Raisi, It
Distanza dalla Stazione: 762 km
Ultimo Aggiornamento: Mercoledì 28 Ottobre 2020 17:20 CET
Qualche Nuvola
Qualche Nuvola
 Wind from Nord-Nord-Ovest
Vento: Nord-Nord-Ovest 26 km/h
Temperatura: 19°C
Punto di Rugiada: 10°C
Umidità: 56%
Barometro: 1018 hPa
Nuvole: Qualche Nuvola
Visibilità: 10 km
Nuvole nel Dettaglio: Qualche Nuvola 914 m
2020/10/28 16:20 LICJ 281620Z 34014KT 9999 FEW030 19/10 Q1018
LICC - Catania Fontanarossa, It
Distanza dalla Stazione: 866 km
Ultimo Aggiornamento: Mercoledì 28 Ottobre 2020 17:20 CET
Parzialmente Nuvoloso
Parzialmente Nuvoloso
 Wind from Sud-Ovest
Vento: Sud-Ovest 13 km/h
Temperatura: 19°C
Punto di Rugiada: 8°C
Umidità: 49%
Barometro: 1014 hPa
Nuvole: Parzialmente Nuvoloso
Visibilità: 10 km
Nuvole nel Dettaglio: Parzialmente Nuvoloso 3048 m
2020/10/28 16:20 LICC 281620Z 23007KT 160V270 9999 SCT100 19/08 Q1014
 
LIEE - Cagliari Elmas, It
Distanza dalla Stazione: 655 km
Ultimo Aggiornamento: Mercoledì 28 Ottobre 2020 17:20 CET
Sereno
Sereno
 Wind from Nord
Vento: Nord 19 km/h
Temperatura: 18°C
Punto di Rugiada: 11°C
Umidità: 64%
Barometro: 1020 hPa
Condizioni: Sereno
Visibilità: superiore a 10 km
2020/10/28 16:20 LIEE 281620Z 36010KT CAVOK 18/11 Q1020
LIEO - Olbia, It
Distanza dalla Stazione: 463 km
Ultimo Aggiornamento: Mercoledì 28 Ottobre 2020 17:20 CET
Sereno
Sereno
 Wind from Ovest-Sud-Ovest
Vento: Ovest-Sud-Ovest 17 km/h
Temperatura: 18°C
Punto di Rugiada: 9°C
Umidità: 56%
Barometro: 1019 hPa
Condizioni: Sereno
Visibilità: superiore a 10 km
2020/10/28 16:20 LIEO 281620Z 25009KT CAVOK 18/09 Q1019
LICG - Pantelleria, It
Distanza dalla Stazione: 893 km
Ultimo Aggiornamento: Mercoledì 28 Ottobre 2020 16:50 CET
Qualche Nuvola
Qualche Nuvola
 Wind from Ovest-Nord-Ovest
Vento: Ovest-Nord-Ovest 22 km/h
Temperatura: 17°C
Punto di Rugiada: 9°C
Umidità: 59%
Barometro: 1020 hPa
Nuvole: Qualche Nuvola
Visibilità: 10 km
Nuvole nel Dettaglio: Qualche Nuvola 914 m
2020/10/28 15:50 LICG 281550Z 30012KT 270V330 9999 FEW030 17/09 Q1020